Time;durP1;ratioP1;P1;durP2;ratioP2;P2;SDS_P1;SDS_P2;PMS_P1;PMS_P2;Temp;Humidity;BMP_temperature;BMP_pressure;BME280_temperature;BME280_humidity;BME280_pressure;Samples;Min_cycle;Max_cycle;Signal;HPM_P1;HPM_P2
2021/12/03 00:00:43;;;;;;;;;9.00;8.00;;;;;5.34;67.85;100794.91;4806832;29;45791;-75
2021/12/03 00:03:09;;;;;;;;;8.75;7.75;;;;;5.35;67.56;100783.56;4806681;29;45609;-76
2021/12/03 00:05:35;;;;;;;;;11.75;5.00;;;;;5.36;67.62;100777.47;4806550;29;46496;-76
2021/12/03 00:08:01;;;;;;;;;8.50;8.25;;;;;5.36;68.07;100783.50;4806090;29;47148;-75
2021/12/03 00:10:27;;;;;;;;;9.50;7.25;;;;;5.36;68.35;100775.72;4789889;29;46080;-76
2021/12/03 00:12:54;;;;;;;;;10.00;8.00;;;;;5.36;68.11;100770.53;4806501;29;45816;-76
2021/12/03 00:15:23;;;;;;;;;7.75;6.00;;;;;5.38;67.76;100786.03;4806329;29;46511;-75
2021/12/03 00:17:49;;;;;;;;;9.50;7.50;;;;;5.33;68.17;100769.84;4789723;29;46929;-74
2021/12/03 00:20:14;;;;;;;;;9.25;7.75;;;;;5.36;67.92;100775.72;4806557;29;45668;-74
2021/12/03 00:22:47;;;;;;;;;7.50;5.75;;;;;5.37;68.08;100785.19;4806799;29;45802;-75
2021/12/03 00:28:35;;;;;;;;;9.50;7.50;;;;;5.41;67.81;100786.72;4806065;29;46011;-76
2021/12/03 00:31:03;;;;;;;;;8.00;8.00;;;;;5.41;68.11;100786.72;4805968;29;45879;-76
2021/12/03 00:33:30;;;;;;;;;12.50;7.75;;;;;5.42;67.59;100777.19;4789878;29;45985;-76
2021/12/03 00:35:56;;;;;;;;;8.50;7.75;;;;;5.34;68.03;100764.56;4806030;29;46658;-76
2021/12/03 00:38:21;;;;;;;;;8.50;7.00;;;;;5.45;67.88;100779.66;4806269;29;46514;-75
2021/12/03 00:40:48;;;;;;;;;9.50;8.25;;;;;5.45;67.45;100783.06;4806030;29;45591;-76
2021/12/03 00:43:13;;;;;;;;;9.00;8.00;;;;;5.40;67.74;100763.41;4806432;29;45755;-75
2021/12/03 00:45:38;;;;;;;;;8.50;8.00;;;;;5.33;67.68;100757.69;4805904;29;47239;-74
2021/12/03 00:48:04;;;;;;;;;6.25;6.25;;;;;5.41;67.94;100780.69;4805662;29;46272;-77
2021/12/03 00:50:31;;;;;;;;;7.75;7.75;;;;;5.44;67.67;100783.16;4806382;29;45553;-75
2021/12/03 00:52:57;;;;;;;;;11.00;9.00;;;;;5.45;68.00;100793.47;4805970;29;45561;-75
2021/12/03 00:58:44;;;;;;;;;1.75;1.75;;;;;5.43;67.43;100784.06;4804777;29;45763;-75
2021/12/03 01:01:10;;;;;;;;;10.50;7.50;;;;;5.49;67.88;100794.19;4789413;29;45821;-76
2021/12/03 01:03:38;;;;;;;;;13.50;12.00;;;;;5.50;67.98;100795.88;4789446;29;45464;-74
2021/12/03 01:06:04;;;;;;;;;10.25;10.25;;;;;5.48;67.74;100801.13;4805677;29;46590;-75
2021/12/03 01:08:31;;;;;;;;;8.50;5.50;;;;;5.51;67.30;100797.53;4805727;29;46263;-75
2021/12/03 01:10:57;;;;;;;;;15.25;11.00;;;;;5.36;67.88;100780.91;4789376;29;45811;-76
2021/12/03 01:13:23;;;;;;;;;11.25;9.00;;;;;5.48;67.79;100798.53;4805904;29;45629;-76
2021/12/03 01:15:49;;;;;;;;;8.00;7.75;;;;;5.51;67.71;100810.50;4805589;29;46269;-76
2021/12/03 01:18:14;;;;;;;;;8.50;8.00;;;;;5.51;67.71;100807.09;4805704;29;45625;-74
2021/12/03 01:20:42;;;;;;;;;10.75;10.25;;;;;5.42;67.25;100798.81;4805815;29;45690;-75
2021/12/03 01:23:11;;;;;;;;;12.00;9.50;;;;;5.55;67.54;100821.63;4788997;29;45794;-75
2021/12/03 01:28:58;;;;;;;;;9.00;8.00;;;;;5.58;67.07;100821.47;4805221;29;45685;-75
2021/12/03 01:31:23;;;;;;;;;8.75;8.25;;;;;5.56;67.88;100816.34;4805477;29;45649;-76
2021/12/03 01:33:49;;;;;;;;;11.75;9.00;;;;;5.57;67.34;100807.63;4789856;29;45518;-76
2021/12/03 01:36:15;;;;;;;;;11.75;8.75;;;;;5.52;67.85;100794.03;4805828;29;46440;-75
2021/12/03 01:38:41;;;;;;;;;9.75;8.75;;;;;5.65;67.51;100818.53;4805970;29;45719;-75
2021/12/03 01:41:07;;;;;;;;;15.00;12.00;;;;;5.67;67.34;100815.88;4805727;29;45601;-75
2021/12/03 01:43:32;;;;;;;;;13.50;11.00;;;;;5.68;67.19;100810.56;4789224;29;45523;-74
2021/12/03 01:46:02;;;;;;;;;10.75;10.75;;;;;5.68;67.61;100817.53;4805733;29;45924;-76
2021/12/03 01:48:29;;;;;;;;;8.75;8.50;;;;;5.71;67.26;100825.19;4804997;29;47289;-75
2021/12/03 01:50:58;;;;;;;;;11.00;9.00;;;;;5.74;67.43;100838.03;4805055;29;45632;-75
2021/12/03 01:59:50;;;;;;;;;12.75;8.75;;;;;5.73;67.01;100842.38;4804751;29;45766;-75
2021/12/03 02:02:15;;;;;;;;;8.75;8.75;;;;;5.75;67.23;100831.91;4805034;29;45639;-74
2021/12/03 02:04:41;;;;;;;;;11.75;9.00;;;;;5.73;67.05;100833.75;4805026;29;45583;-75
2021/12/03 02:07:07;;;;;;;;;10.50;8.00;;;;;5.75;67.10;100832.75;4804914;29;46778;-76
2021/12/03 02:09:33;;;;;;;;;9.50;8.00;;;;;5.73;66.89;100831.97;4788551;29;47151;-76
2021/12/03 02:11:59;;;;;;;;;9.00;8.75;;;;;5.74;67.46;100832.81;4804706;29;45631;-75
2021/12/03 02:14:24;;;;;;;;;12.25;7.50;;;;;5.71;67.35;100826.03;4805468;29;45528;-75
2021/12/03 02:16:50;;;;;;;;;9.25;9.00;;;;;5.75;67.31;100835.38;4804954;29;46233;-75
2021/12/03 02:19:15;;;;;;;;;9.00;8.00;;;;;5.76;66.69;100826.66;4804775;29;46258;-75
2021/12/03 02:21:41;;;;;;;;;10.75;8.25;;;;;5.77;67.36;100830.94;4804763;29;45642;-74
2021/12/03 02:24:07;;;;;;;;;5.00;5.00;;;;;5.73;67.22;100819.00;4804771;29;45620;-75
2021/12/03 02:26:32;;;;;;;;;13.75;8.25;;;;;5.81;67.26;100831.63;4804517;29;45496;-75
2021/12/03 02:28:58;;;;;;;;;13.25;9.00;;;;;5.80;66.94;100829.94;4804697;29;46240;-75
2021/12/03 02:31:25;;;;;;;;;9.75;8.75;;;;;5.79;67.01;100823.06;4804473;29;45686;-75
2021/12/03 02:33:51;;;;;;;;;9.00;8.50;;;;;5.75;67.41;100824.13;4804807;29;45735;-75
2021/12/03 02:36:18;;;;;;;;;11.25;10.50;;;;;5.77;67.36;100830.94;4804232;29;46660;-75
2021/12/03 02:38:44;;;;;;;;;11.25;10.00;;;;;5.76;67.07;100825.81;4804629;29;46618;-74
2021/12/03 02:41:11;;;;;;;;;11.00;9.00;;;;;5.74;67.28;100825.88;4805223;29;45925;-76
2021/12/03 02:43:36;;;;;;;;;6.50;6.25;;;;;5.76;67.18;100833.59;4804777;29;45819;-76
2021/12/03 02:46:02;;;;;;;;;11.50;11.25;;;;;5.75;66.87;100826.72;4804497;29;45546;-75
2021/12/03 02:48:30;;;;;;;;;12.00;10.75;;;;;5.76;66.80;100820.63;4787968;29;47127;-74
2021/12/03 02:50:56;;;;;;;;;9.50;8.50;;;;;5.77;67.20;100819.69;4803025;29;45631;-75
2021/12/03 02:53:22;;;;;;;;;8.75;8.00;;;;;5.76;67.22;100818.84;4804758;29;45731;-75
2021/12/03 02:59:09;;;;;;;;;15.00;8.25;;;;;5.73;67.12;100803.41;4804316;29;45661;-74
2021/12/03 03:01:34;;;;;;;;;9.50;8.00;;;;;5.73;67.15;100800.78;4804245;29;45687;-76
2021/12/03 03:04:00;;;;;;;;;11.50;8.75;;;;;5.76;66.76;100789.41;4804409;29;45885;-74
2021/12/03 03:06:26;;;;;;;;;9.00;8.00;;;;;5.76;67.00;100779.88;4804102;29;46807;-76
2021/12/03 03:08:51;;;;;;;;;8.00;8.00;;;;;5.78;67.00;100785.81;4804154;29;45941;-76
2021/12/03 03:11:18;;;;;;;;;8.25;6.00;;;;;5.80;66.91;100783.16;4804190;29;45587;-75
2021/12/03 03:13:44;;;;;;;;;7.50;6.50;;;;;5.78;66.88;100788.41;4804450;29;45452;-73
2021/12/03 03:16:10;;;;;;;;;9.00;9.00;;;;;5.77;66.71;100775.50;4803649;29;47088;-75
2021/12/03 03:18:36;;;;;;;;;12.25;11.00;;;;;5.78;67.04;100775.41;4804283;29;45942;-75
2021/12/03 03:21:05;;;;;;;;;12.00;9.00;;;;;5.77;66.80;100775.50;4803874;29;45617;-74
2021/12/03 03:23:31;;;;;;;;;8.75;7.50;;;;;5.77;66.87;100776.34;4790292;29;45567;-75
2021/12/03 03:29:18;;;;;;;;;8.50;7.75;;;;;5.73;66.74;100774.81;4806872;29;45678;-74
2021/12/03 03:31:47;;;;;;;;;10.25;8.50;;;;;5.74;66.96;100781.69;4807058;29;45701;-75
2021/12/03 03:34:12;;;;;;;;;10.00;6.50;;;;;5.73;66.93;100771.34;4807056;29;45650;-76
2021/12/03 03:36:42;;;;;;;;;9.50;8.00;;;;;5.71;66.73;100768.84;4806675;29;47582;-75
2021/12/03 03:39:10;;;;;;;;;8.00;6.00;;;;;5.73;66.91;100780.00;4806989;29;45992;-75
2021/12/03 03:41:36;;;;;;;;;9.50;6.50;;;;;5.68;66.71;100776.78;4807173;29;45599;-75
2021/12/03 03:44:02;;;;;;;;;8.50;6.00;;;;;5.72;66.95;100785.28;4807200;29;45669;-75
2021/12/03 03:46:27;;;;;;;;;5.50;5.50;;;;;5.68;66.82;100788.94;4806293;29;47417;-74
2021/12/03 03:48:53;;;;;;;;;6.50;5.75;;;;;5.64;67.13;100772.66;4806907;29;46022;-76
2021/12/03 03:51:18;;;;;;;;;6.25;6.00;;;;;5.66;66.82;100778.63;4806734;29;45485;-75
2021/12/03 03:53:44;;;;;;;;;6.00;6.00;;;;;5.65;67.18;100782.13;4806727;29;45711;-75
2021/12/03 03:59:31;;;;;;;;;8.50;7.00;;;;;5.62;66.90;100771.03;4806592;29;46109;-74
2021/12/03 04:01:56;;;;;;;;;12.00;8.00;;;;;5.68;67.07;100768.97;4806654;29;45813;-76
2021/12/03 04:04:22;;;;;;;;;8.75;7.00;;;;;5.70;67.21;100767.16;4806703;29;45696;-75
2021/12/03 04:06:49;;;;;;;;;8.00;5.75;;;;;5.66;66.80;100765.63;4805989;29;47265;-75
2021/12/03 04:09:14;;;;;;;;;5.50;5.00;;;;;5.69;66.82;100770.66;4806267;29;47253;-75
2021/12/03 04:11:40;;;;;;;;;8.00;5.00;;;;;5.70;66.66;100768.91;4806132;29;45591;-75
2021/12/03 04:14:05;;;;;;;;;9.00;8.00;;;;;5.65;66.79;100761.34;4806579;29;45952;-75
2021/12/03 04:16:31;;;;;;;;;8.75;5.75;;;;;5.69;66.99;100756.84;4806196;29;46281;-76
2021/12/03 04:18:58;;;;;;;;;8.25;6.75;;;;;5.65;67.09;100744.91;4806319;29;47017;-76
2021/12/03 04:21:23;;;;;;;;;6.00;6.00;;;;;5.65;66.71;100740.56;4806353;29;45973;-74
2021/12/03 04:23:49;;;;;;;;;7.50;5.25;;;;;5.69;66.90;100743.84;4806322;29;45705;-77
2021/12/03 04:29:36;;;;;;;;;6.50;5.00;;;;;5.67;66.99;100754.31;4806170;29;46036;-76
2021/12/03 04:32:02;;;;;;;;;6.00;5.25;;;;;5.68;66.50;100775.94;4806321;29;45564;-75
2021/12/03 04:34:28;;;;;;;;;8.00;6.00;;;;;5.66;66.51;100770.00;4805261;29;45588;-74
2021/12/03 04:36:53;;;;;;;;;3.75;3.75;;;;;5.66;66.69;100767.38;4789773;29;46486;-76
2021/12/03 04:39:18;;;;;;;;;7.75;5.75;;;;;5.64;66.77;100754.47;4806078;29;45717;-75
2021/12/03 04:41:44;;;;;;;;;5.25;5.25;;;;;5.57;66.41;100732.28;4805892;29;45522;-76
2021/12/03 04:44:09;;;;;;;;;5.75;5.25;;;;;5.64;66.75;100761.41;4806237;29;45589;-75
2021/12/03 04:46:35;;;;;;;;;9.00;6.25;;;;;5.64;66.77;100754.47;4805645;29;46695;-75
2021/12/03 04:49:00;;;;;;;;;4.75;4.00;;;;;5.62;66.44;100738.09;4805780;29;46115;-76
2021/12/03 04:51:26;;;;;;;;;6.25;5.75;;;;;5.60;66.52;100744.28;4806276;29;45645;-75
2021/12/03 04:53:51;;;;;;;;;5.00;4.00;;;;;5.55;66.37;100733.28;4805834;29;45920;-75
2021/12/03 04:59:38;;;;;;;;;4.00;4.00;;;;;5.61;66.40;100761.56;4805716;29;45754;-75
2021/12/03 05:02:03;;;;;;;;;5.75;4.25;;;;;5.60;66.79;100757.28;4805700;29;45792;-75
2021/12/03 05:04:36;;;;;;;;;8.25;4.25;;;;;5.59;66.44;100750.41;4804468;29;45817;-75
2021/12/03 05:07:15;;;;;;;;;4.75;3.00;;;;;5.49;66.92;100727.47;4804794;29;45829;-75
2021/12/03 05:09:41;;;;;;;;;7.75;5.50;;;;;5.60;66.75;100736.50;4805705;29;45602;-75
2021/12/03 05:12:07;;;;;;;;;6.00;5.00;;;;;5.66;66.34;100737.06;4805446;29;45663;-75
2021/12/03 05:14:32;;;;;;;;;4.75;4.00;;;;;5.69;66.37;100733.44;4805581;29;45696;-76
2021/12/03 05:16:58;;;;;;;;;5.25;4.25;;;;;5.72;66.45;100718.53;4805015;29;46213;-76
2021/12/03 05:19:23;;;;;;;;;5.00;4.75;;;;;5.74;66.49;100711.50;4805278;29;46105;-75
2021/12/03 05:21:49;;;;;;;;;5.50;4.75;;;;;5.74;66.28;100701.13;4805312;29;45572;-75
2021/12/03 05:24:16;;;;;;;;;5.00;5.00;;;;;5.79;66.24;100713.88;4805501;29;45492;-74
2021/12/03 05:30:04;;;;;;;;;2.50;2.00;;;;;5.82;66.44;100711.13;4805401;29;46299;-75
2021/12/03 05:32:30;;;;;;;;;4.25;4.00;;;;;5.76;66.58;100695.84;4805280;29;45684;-75
2021/12/03 05:34:55;;;;;;;;;7.25;6.00;;;;;5.85;66.47;100711.81;4805376;29;45522;-75
2021/12/03 05:37:21;;;;;;;;;4.00;4.00;;;;;5.87;66.13;100701.38;4805117;29;45677;-75
2021/12/03 05:39:46;;;;;;;;;4.75;4.75;;;;;5.88;66.13;100703.88;4805084;29;47157;-76
2021/12/03 05:42:11;;;;;;;;;5.00;5.00;;;;;5.90;66.16;100706.41;4805467;29;45528;-76
2021/12/03 05:44:37;;;;;;;;;8.25;5.00;;;;;5.89;66.20;100702.97;4805297;29;45779;-74
2021/12/03 05:47:03;;;;;;;;;8.00;6.50;;;;;5.93;66.50;100706.28;4804873;29;46543;-74
2021/12/03 05:49:28;;;;;;;;;5.00;5.00;;;;;5.95;65.93;100698.38;4805171;29;47006;-74
2021/12/03 05:51:55;;;;;;;;;5.00;5.00;;;;;5.96;66.43;100702.66;4804952;29;45813;-74
2021/12/03 05:54:21;;;;;;;;;8.00;6.00;;;;;5.97;66.01;100701.75;4805476;29;45599;-75
2021/12/03 05:56:48;;;;;;;;;8.00;6.00;;;;;5.98;66.35;100693.88;4804829;29;46428;-73
2021/12/03 05:59:13;;;;;;;;;8.00;6.00;;;;;6.01;66.14;100698.91;4805094;29;46803;-76
2021/12/03 06:01:39;;;;;;;;;9.25;6.50;;;;;6.04;65.97;100682.34;4804893;29;45654;-76
2021/12/03 06:04:04;;;;;;;;;6.00;4.75;;;;;6.05;65.83;100674.44;4805071;29;45681;-76
2021/12/03 06:06:30;;;;;;;;;5.75;5.00;;;;;6.09;66.23;100667.34;4804669;29;47984;-77
2021/12/03 06:08:58;;;;;;;;;10.00;5.00;;;;;6.09;66.05;100662.97;4804763;29;45627;-75
2021/12/03 06:11:26;;;;;;;;;7.00;6.50;;;;;6.04;66.26;100648.53;4805061;29;46100;-76
2021/12/03 06:13:52;;;;;;;;;4.75;4.50;;;;;6.05;65.97;100652.78;4805116;29;45568;-77
2021/12/03 06:16:18;;;;;;;;;5.00;4.25;;;;;6.04;66.14;100658.94;4804620;29;47384;-76
2021/12/03 06:18:44;;;;;;;;;6.50;4.50;;;;;6.09;66.17;100672.53;4804800;29;46043;-76
2021/12/03 06:21:12;;;;;;;;;5.00;5.00;;;;;6.02;66.05;100664.19;4805222;29;45535;-76
2021/12/03 06:23:39;;;;;;;;;5.75;5.00;;;;;6.08;66.13;100669.09;4805243;29;45530;-76
2021/12/03 06:26:05;;;;;;;;;5.00;5.00;;;;;6.11;66.23;100675.88;4804668;29;47729;-75
2021/12/03 06:28:32;;;;;;;;;8.25;5.75;;;;;6.11;66.13;100675.88;4805107;29;46101;-77
2021/12/03 06:30:59;;;;;;;;;7.00;7.00;;;;;6.11;65.93;100684.53;4804976;29;45924;-76
2021/12/03 06:33:24;;;;;;;;;6.00;4.75;;;;;6.11;65.81;100686.28;4804818;29;45712;-74
2021/12/03 06:35:51;;;;;;;;;8.00;7.50;;;;;5.95;65.80;100654.19;4804501;29;47371;-75
2021/12/03 06:38:17;;;;;;;;;8.25;6.00;;;;;6.06;65.78;100670.91;4804496;29;46401;-76
2021/12/03 06:40:44;;;;;;;;;13.00;12.50;;;;;6.11;65.83;100684.53;4804422;29;45532;-76
2021/12/03 06:43:10;;;;;;;;;15.00;14.00;;;;;6.11;66.10;100675.88;4804648;29;45514;-76
2021/12/03 06:45:36;;;;;;;;;7.25;6.00;;;;;6.14;66.14;100683.53;4787918;29;46387;-75
2021/12/03 06:48:02;;;;;;;;;7.00;5.25;;;;;6.14;65.65;100681.78;4805183;29;47227;-76
2021/12/03 06:50:29;;;;;;;;;7.50;6.00;;;;;6.13;65.98;100677.50;4805449;29;45832;-76
2021/12/03 06:53:00;;;;;;;;;6.00;5.50;;;;;6.15;65.78;100680.88;4789227;29;45797;-74
2021/12/03 06:55:26;;;;;;;;;7.00;5.75;;;;;6.16;66.15;100664.31;4805324;29;46248;-75
2021/12/03 06:57:52;;;;;;;;;4.50;4.50;;;;;6.12;65.65;100678.41;4805927;29;46110;-76
2021/12/03 07:00:18;;;;;;;;;5.00;4.00;;;;;6.08;66.01;100670.84;4791027;29;45612;-76
2021/12/03 07:02:44;;;;;;;;;4.75;2.00;;;;;6.09;65.61;100675.97;4807578;29;45521;-75
2021/12/03 07:05:10;;;;;;;;;2.00;2.00;;;;;6.09;65.85;100667.34;4807761;29;45461;-75
2021/12/03 07:07:36;;;;;;;;;3.50;3.50;;;;;6.06;65.67;100670.91;4807044;29;45991;-74
2021/12/03 07:10:04;;;;;;;;;5.25;4.00;;;;;6.04;65.72;100671.94;4807370;29;45722;-75
2021/12/03 07:12:29;;;;;;;;;4.00;4.00;;;;;5.97;65.80;100652.34;4807325;29;45658;-75
2021/12/03 07:14:55;;;;;;;;;2.00;1.50;;;;;5.98;65.92;100654.03;4806917;29;47331;-75
2021/12/03 07:17:20;;;;;;;;;2.50;2.00;;;;;6.02;66.05;100669.41;4807202;29;45908;-74
2021/12/03 07:19:46;;;;;;;;;2.50;2.00;;;;;6.00;65.94;100668.63;4807651;29;45577;-75
2021/12/03 07:22:11;;;;;;;;;2.25;1.75;;;;;6.00;65.93;100665.19;4807328;29;45572;-75
2021/12/03 07:24:37;;;;;;;;;5.25;2.00;;;;;6.00;65.70;100655.63;4807086;29;46446;-74
2021/12/03 07:30:24;;;;;;;;;4.00;4.00;;;;;6.00;65.71;100654.78;4806901;29;45752;-75
2021/12/03 07:32:50;;;;;;;;;2.00;2.00;;;;;5.98;65.87;100647.09;4807394;29;45814;-76
2021/12/03 07:35:15;;;;;;;;;2.00;2.00;;;;;5.95;65.71;100648.97;4806768;29;47330;-75
2021/12/03 07:37:43;;;;;;;;;2.00;2.00;;;;;5.97;65.81;100653.19;4806525;29;47699;-75
2021/12/03 07:40:09;;;;;;;;;2.00;2.00;;;;;5.95;65.72;100654.19;4807087;29;45615;-74
2021/12/03 07:42:35;;;;;;;;;3.00;2.00;;;;;5.97;65.60;100655.78;4806857;29;45519;-77
2021/12/03 07:45:05;;;;;;;;;2.00;2.00;;;;;5.98;65.63;100661.84;4806886;29;46508;-75
2021/12/03 07:47:31;;;;;;;;;2.00;2.00;;;;;5.98;65.81;100659.25;4806115;29;46389;-75
2021/12/03 07:49:56;;;;;;;;;4.50;3.00;;;;;5.98;65.84;100667.03;4806641;29;45687;-74
2021/12/03 07:52:22;;;;;;;;;1.00;1.00;;;;;6.01;65.75;100666.88;4806941;29;45710;-76
2021/12/03 07:54:48;;;;;;;;;3.50;3.50;;;;;5.95;65.89;100655.03;4806674;29;46737;-76
2021/12/03 08:00:36;;;;;;;;;2.50;2.00;;;;;6.03;65.37;100659.84;4806729;29;45761;-76
2021/12/03 08:03:02;;;;;;;;;2.00;1.00;;;;;6.04;65.79;100656.31;4806899;29;45760;-75
2021/12/03 08:05:28;;;;;;;;;2.00;1.00;;;;;6.02;65.72;100648.59;4806744;29;45561;-76
2021/12/03 08:07:53;;;;;;;;;2.00;2.00;;;;;6.06;65.67;100659.66;4806564;29;46266;-76
2021/12/03 08:10:19;;;;;;;;;2.00;1.75;;;;;6.05;65.41;100650.19;4806697;29;45607;-77
2021/12/03 08:12:46;;;;;;;;;2.00;1.75;;;;;6.06;65.57;100660.50;4807067;29;45443;-76
2021/12/03 08:15:12;;;;;;;;;3.50;2.00;;;;;6.07;65.22;100648.34;4809683;29;46637;-74
2021/12/03 08:17:38;;;;;;;;;4.00;2.00;;;;;6.08;65.44;100648.28;4813197;29;45513;-75
2021/12/03 08:20:05;;;;;;;;;2.00;1.50;;;;;6.08;65.33;100647.44;4812899;29;45680;-75
2021/12/03 08:22:31;;;;;;;;;4.00;2.00;;;;;6.07;65.21;100645.75;4795585;29;45534;-75
2021/12/03 08:24:56;;;;;;;;;2.00;2.00;;;;;6.11;65.23;100639.47;4811678;29;45489;-74
2021/12/03 08:30:43;;;;;;;;;4.00;4.00;;;;;6.09;65.20;100642.16;4809259;29;45912;-76
2021/12/03 08:33:09;;;;;;;;;4.00;4.00;;;;;6.15;65.21;100638.41;4809274;29;46014;-76
2021/12/03 08:35:34;;;;;;;;;1.50;1.50;;;;;6.20;65.35;100652.00;4807578;29;46177;-75
2021/12/03 08:38:00;;;;;;;;;2.50;2.00;;;;;6.16;65.05;100637.47;4807524;29;47057;-75
2021/12/03 08:40:26;;;;;;;;;2.00;2.00;;;;;6.21;64.95;100653.66;4806826;29;45630;-75
2021/12/03 08:42:52;;;;;;;;;4.00;2.00;;;;;6.22;64.97;100652.75;4790114;29;45538;-76
2021/12/03 08:45:20;;;;;;;;;1.00;1.00;;;;;6.24;65.08;100649.16;4806168;29;46215;-76
2021/12/03 08:47:49;;;;;;;;;4.00;2.00;;;;;6.21;64.56;100641.50;4789575;29;46178;-75
2021/12/03 08:50:21;;;;;;;;;4.00;2.00;;;;;6.23;64.46;100651.84;4806886;29;45662;-75
2021/12/03 08:55:31;;;;;;;;;4.50;4.00;;;;;6.25;64.91;100647.41;4806137;29;46076;-75
2021/12/03 08:57:56;;;;;;;;;4.00;2.00;;;;;6.27;64.71;100655.94;4806220;29;47025;-75
2021/12/03 09:00:22;;;;;;;;;1.00;1.00;;;;;6.29;64.44;100656.72;4806275;29;45577;-76
2021/12/03 09:02:48;;;;;;;;;4.00;2.00;;;;;6.27;64.44;100646.38;4806423;29;45537;-75
2021/12/03 09:05:14;;;;;;;;;3.50;2.00;;;;;6.27;64.70;100635.13;4805990;29;47834;-76
2021/12/03 09:07:40;;;;;;;;;3.00;2.00;;;;;6.33;64.60;100642.63;4805664;29;46130;-76
2021/12/03 09:10:10;;;;;;;;;4.00;4.00;;;;;6.32;64.52;100659.16;4805586;29;45685;-75
2021/12/03 09:16:15;;;;;;;;;3.50;2.00;;;;;6.30;64.53;100641.03;4804269;29;45805;-74
2021/12/03 09:18:43;;;;;;;;;4.00;2.00;;;;;6.30;64.42;100643.66;4805426;29;47260;-75
2021/12/03 09:24:12;;;;;;;;;4.50;3.50;;;;;6.39;64.30;100637.09;4749434;29;45772;-76
2021/12/03 09:26:41;;;;;;;;;3.00;3.00;;;;;6.41;64.06;100631.81;4749885;29;45605;-76
2021/12/03 09:29:09;;;;;;;;;2.00;2.00;;;;;6.40;64.25;100625.78;4750202;29;46225;-74
2021/12/03 09:31:37;;;;;;;;;4.75;4.50;;;;;6.42;64.62;100626.53;4750390;29;45681;-76
2021/12/03 09:34:09;;;;;;;;;2.00;2.00;;;;;6.44;64.07;100629.88;4749922;29;45711;-76
2021/12/03 09:36:36;;;;;;;;;5.00;3.50;;;;;6.45;64.37;100628.13;4749075;29;46738;-76
2021/12/03 09:39:04;;;;;;;;;4.00;2.00;;;;;6.46;64.76;100611.59;4749215;29;47372;-76
2021/12/03 09:41:29;;;;;;;;;2.50;2.50;;;;;6.44;64.53;100611.66;4748949;29;45897;-77
2021/12/03 09:43:55;;;;;;;;;2.00;2.00;;;;;6.46;64.76;100615.03;4749421;29;45742;-76
2021/12/03 09:46:23;;;;;;;;;4.00;3.00;;;;;6.47;64.99;100601.13;4748600;29;46402;-75
2021/12/03 09:51:48;;;;;;;;;2.00;2.00;;;;;6.48;64.73;100594.97;4748768;29;45975;-75
2021/12/03 09:56:51;;;;;;;;;5.00;4.00;;;;;6.51;65.00;100605.22;4748656;29;46310;-75
2021/12/03 10:12:58;;;;;;;;;4.25;4.00;;;;;6.56;65.18;100604.97;4804927;29;45942;-76
2021/12/03 10:15:36;;;;;;;;;4.00;4.00;;;;;6.56;65.28;100595.41;4804743;29;45548;-76
2021/12/03 10:18:07;;;;;;;;;5.50;4.00;;;;;6.55;65.59;100593.72;4804879;29;46244;-75
2021/12/03 10:20:53;;;;;;;;;5.00;4.50;;;;;6.53;65.73;100576.53;4805064;29;45994;-76
2021/12/03 10:24:20;;;;;;;;;5.00;5.00;;;;;6.57;65.54;100567.59;4805234;29;45661;-77
2021/12/03 10:30:09;;;;;;;;;6.75;5.25;;;;;6.56;65.67;100547.72;4804916;29;46200;-74
2021/12/03 10:32:58;;;;;;;;;5.00;4.00;;;;;6.54;66.39;100545.19;4807259;29;46115;-76
2021/12/03 10:35:49;;;;;;;;;6.00;5.00;;;;;6.54;66.19;100555.59;4807827;29;45489;-76
2021/12/03 10:38:31;;;;;;;;;5.50;4.75;;;;;6.52;66.17;100544.44;4807542;29;45608;-76
2021/12/03 10:47:30;;;;;;;;;4.00;4.00;;;;;6.47;66.59;100532.63;4807171;29;45592;-75
2021/12/03 10:50:51;;;;;;;;;6.50;4.75;;;;;6.45;66.60;100519.69;4807464;29;45581;-76
2021/12/03 10:53:18;;;;;;;;;4.50;4.00;;;;;6.46;66.72;100508.34;4803704;29;45777;-75
2021/12/03 11:06:55;;;;;;;;;9.25;7.00;;;;;6.42;67.28;100488.63;4807196;29;45659;-75
2021/12/03 11:40:34;;;;;;;;;5.50;5.25;;;;;6.24;69.24;100432.41;4807034;29;45844;-77
2021/12/03 12:10:09;;;;;;;;;4.75;2.00;;;;;6.16;70.07;100347.00;4732502;30;45675;-77
2021/12/03 14:10:17;;;;;;;;;1.00;1.00;;;;;6.29;72.12;100139.91;4731153;30;45842;-76
2021/12/03 14:36:22;;;;;;;;;1.75;1.75;;;;;6.33;72.66;100091.09;4766528;29;45875;-79
2021/12/03 14:38:19;;;;;;;;;1.75;1.00;;;;;6.36;72.68;100096.13;4754383;29;45653;-78
2021/12/03 14:56:17;;;;;;;;;1.00;1.00;;;;;6.41;72.91;100065.47;4805902;29;45620;-77
2021/12/03 14:58:54;;;;;;;;;1.00;1.00;;;;;6.47;72.92;100059.88;4805187;29;45835;-78
2021/12/03 15:01:58;;;;;;;;;2.00;1.25;;;;;6.49;72.99;100055.41;4804958;29;46298;-77
2021/12/03 15:07:17;;;;;;;;;2.00;1.00;;;;;6.50;73.13;100043.22;4804160;29;45812;-77
2021/12/03 15:09:45;;;;;;;;;1.50;1.50;;;;;6.48;73.11;100055.53;4804418;29;45510;-78
2021/12/03 15:23:06;;;;;;;;;0.25;0.00;;;;;6.47;73.47;100033.03;4807252;29;45650;-77
2021/12/03 15:32:06;;;;;;;;;1.00;1.00;;;;;6.50;73.08;100040.63;4768728;29;45912;-77
2021/12/03 15:40:04;;;;;;;;;3.75;2.25;;;;;6.54;73.50;100026.47;4768883;29;45625;-78
2021/12/03 16:04:28;;;;;;;;;1.00;1.00;;;;;6.58;73.70;99988.94;4779602;29;45840;-77
2021/12/03 16:07:09;;;;;;;;;1.00;1.00;;;;;6.62;74.05;99983.44;4806293;29;46410;-76
2021/12/03 16:12:42;;;;;;;;;0.50;0.50;;;;;6.64;73.87;99978.94;4806460;29;45919;-76
2021/12/03 16:51:47;;;;;;;;;4.50;2.00;;;;;6.92;74.09;99901.63;4749608;29;46427;-78
2021/12/03 16:54:15;;;;;;;;;3.25;2.75;;;;;6.92;74.04;99899.03;4749308;29;46399;-77
2021/12/03 16:56:46;;;;;;;;;2.75;2.75;;;;;6.93;73.98;99888.53;4749432;29;45883;-78
2021/12/03 16:59:12;;;;;;;;;3.25;2.25;;;;;6.94;73.88;99892.78;4779715;29;45672;-78
2021/12/03 17:01:46;;;;;;;;;5.00;3.50;;;;;6.95;73.82;99880.63;4805683;29;45767;-78
2021/12/03 17:04:33;;;;;;;;;3.50;2.25;;;;;6.97;73.93;99889.97;4805562;29;46514;-78
2021/12/03 17:47:36;;;;;;;;;9.00;7.25;;;;;7.08;74.11;99821.53;4804931;29;45761;-77
2021/12/03 17:50:25;;;;;;;;;5.00;5.00;;;;;7.05;74.18;99825.19;4805441;29;45513;-77
2021/12/03 18:51:15;;;;;;;;;9.50;8.50;;;;;7.30;74.53;99706.25;4748258;29;46342;-78
2021/12/03 18:54:19;;;;;;;;;11.50;11.50;;;;;7.30;74.57;99693.22;4749724;29;45691;-77
2021/12/03 18:58:57;;;;;;;;;9.00;8.00;;;;;7.33;74.57;99688.63;4751435;29;45847;-78
2021/12/03 19:05:14;;;;;;;;;10.75;9.50;;;;;7.33;74.55;99677.38;4750630;29;46199;-77
2021/12/03 19:10:24;;;;;;;;;10.75;10.00;;;;;7.38;74.85;99667.44;4686472;30;46018;-77
2021/12/03 19:13:16;;;;;;;;;11.50;11.00;;;;;7.41;74.71;99667.22;4697849;30;47593;-75
2021/12/03 19:15:40;;;;;;;;;11.75;9.50;;;;;7.42;74.82;99667.09;4697298;30;46099;-77
2021/12/03 19:18:06;;;;;;;;;12.50;10.00;;;;;7.45;74.90;99663.47;4697586;30;45710;-76
2021/12/03 19:20:36;;;;;;;;;9.75;9.75;;;;;7.46;74.94;99658.13;4697911;30;45948;-76
2021/12/03 19:23:01;;;;;;;;;10.00;10.00;;;;;7.48;75.00;99652.81;4712490;30;46915;-76
2021/12/03 19:25:27;;;;;;;;;11.00;10.00;;;;;7.50;74.91;99645.72;4714928;30;46160;-75
2021/12/03 19:27:52;;;;;;;;;11.50;10.00;;;;;7.53;74.86;99653.28;4715261;30;45645;-78
2021/12/03 19:30:18;;;;;;;;;12.50;11.00;;;;;7.55;74.88;99641.00;4700882;30;45863;-77
2021/12/03 19:32:43;;;;;;;;;9.25;9.25;;;;;7.58;74.93;99638.97;4715470;30;46689;-78
2021/12/03 19:35:09;;;;;;;;;9.00;9.00;;;;;7.62;75.07;99636.13;4715206;30;47084;-75
2021/12/03 19:37:36;;;;;;;;;9.00;8.00;;;;;7.64;74.93;99636.84;4715102;30;45744;-77
2021/12/03 19:40:07;;;;;;;;;11.00;10.50;;;;;7.60;74.75;99620.63;4715448;30;45613;-77
2021/12/03 19:45:11;;;;;;;;;9.25;9.00;;;;;7.71;74.83;99614.59;4714803;30;46065;-75
2021/12/03 19:47:59;;;;;;;;;8.00;7.00;;;;;7.70;75.10;99607.72;4771313;29;45837;-77
2021/12/03 19:52:59;;;;;;;;;8.00;6.75;;;;;7.69;75.06;99583.44;4806484;29;45677;-75
2021/12/03 19:55:25;;;;;;;;;14.75;12.00;;;;;7.79;75.19;99592.22;4806197;29;46301;-77
2021/12/03 19:57:51;;;;;;;;;10.00;9.00;;;;;7.81;75.29;99587.72;4806537;29;45529;-76
2021/12/03 20:00:17;;;;;;;;;6.75;6.75;;;;;7.86;75.26;99589.97;4790252;29;45557;-77
2021/12/03 20:02:42;;;;;;;;;9.00;9.00;;;;;7.88;75.29;99585.50;4790026;29;46398;-75
2021/12/03 20:05:08;;;;;;;;;10.25;9.00;;;;;7.91;75.37;99585.25;4805580;29;47082;-76